sensor_id;sensor_type;location;lat;lon;timestamp;P1;durP1;ratioP1;P2;durP2;ratioP2
26656;SDS011;14279;50.010;8.260;2023-04-21T00:00:57;32.00;;;24.30;;
26656;SDS011;14279;50.010;8.260;2023-04-21T00:03:23;31.90;;;25.47;;
26656;SDS011;14279;50.010;8.260;2023-04-21T00:05:50;29.90;;;24.37;;
26656;SDS011;14279;50.010;8.260;2023-04-21T00:08:15;31.20;;;23.90;;
26656;SDS011;14279;50.010;8.260;2023-04-21T00:10:41;31.90;;;24.77;;
26656;SDS011;14279;50.010;8.260;2023-04-21T00:13:07;30.97;;;25.27;;
26656;SDS011;14279;50.010;8.260;2023-04-21T00:15:33;30.17;;;24.40;;
26656;SDS011;14279;50.010;8.260;2023-04-21T00:17:59;31.50;;;26.17;;
26656;SDS011;14279;50.010;8.260;2023-04-21T00:20:24;32.80;;;25.60;;
26656;SDS011;14279;50.010;8.260;2023-04-21T00:22:53;33.90;;;26.80;;
26656;SDS011;14279;50.010;8.260;2023-04-21T00:25:19;31.70;;;26.00;;
26656;SDS011;14279;50.010;8.260;2023-04-21T00:27:45;34.57;;;26.20;;
26656;SDS011;14279;50.010;8.260;2023-04-21T00:30:10;34.53;;;27.93;;
26656;SDS011;14279;50.010;8.260;2023-04-21T00:32:36;33.23;;;26.00;;
26656;SDS011;14279;50.010;8.260;2023-04-21T00:35:01;39.60;;;26.83;;
26656;SDS011;14279;50.010;8.260;2023-04-21T00:37:27;35.53;;;28.23;;
26656;SDS011;14279;50.010;8.260;2023-04-21T00:39:52;39.77;;;26.43;;
26656;SDS011;14279;50.010;8.260;2023-04-21T00:42:17;33.10;;;27.53;;
26656;SDS011;14279;50.010;8.260;2023-04-21T00:44:42;35.60;;;28.77;;
26656;SDS011;14279;50.010;8.260;2023-04-21T00:47:08;39.83;;;28.40;;
26656;SDS011;14279;50.010;8.260;2023-04-21T00:49:33;36.43;;;28.87;;
26656;SDS011;14279;50.010;8.260;2023-04-21T00:51:59;35.57;;;28.37;;
26656;SDS011;14279;50.010;8.260;2023-04-21T00:54:24;36.33;;;28.60;;
26656;SDS011;14279;50.010;8.260;2023-04-21T00:56:51;37.90;;;30.50;;
26656;SDS011;14279;50.010;8.260;2023-04-21T00:59:17;40.20;;;30.27;;
26656;SDS011;14279;50.010;8.260;2023-04-21T01:01:43;35.53;;;28.77;;
26656;SDS011;14279;50.010;8.260;2023-04-21T01:04:08;39.30;;;30.30;;
26656;SDS011;14279;50.010;8.260;2023-04-21T01:06:34;39.53;;;29.43;;
26656;SDS011;14279;50.010;8.260;2023-04-21T01:09:00;41.50;;;32.20;;
26656;SDS011;14279;50.010;8.260;2023-04-21T01:11:26;40.23;;;31.00;;
26656;SDS011;14279;50.010;8.260;2023-04-21T01:13:52;41.20;;;31.50;;
26656;SDS011;14279;50.010;8.260;2023-04-21T01:16:20;42.37;;;32.23;;
26656;SDS011;14279;50.010;8.260;2023-04-21T01:18:47;39.93;;;29.03;;
26656;SDS011;14279;50.010;8.260;2023-04-21T01:21:14;38.30;;;30.53;;
26656;SDS011;14279;50.010;8.260;2023-04-21T01:23:40;42.53;;;30.97;;
26656;SDS011;14279;50.010;8.260;2023-04-21T01:26:05;40.23;;;30.13;;
26656;SDS011;14279;50.010;8.260;2023-04-21T01:28:30;40.73;;;31.47;;
26656;SDS011;14279;50.010;8.260;2023-04-21T01:30:56;36.30;;;29.17;;
26656;SDS011;14279;50.010;8.260;2023-04-21T01:33:21;41.20;;;31.40;;
26656;SDS011;14279;50.010;8.260;2023-04-21T01:35:47;40.47;;;30.37;;
26656;SDS011;14279;50.010;8.260;2023-04-21T01:38:12;37.40;;;30.60;;
26656;SDS011;14279;50.010;8.260;2023-04-21T01:40:38;41.80;;;29.63;;
26656;SDS011;14279;50.010;8.260;2023-04-21T01:43:05;40.23;;;31.40;;
26656;SDS011;14279;50.010;8.260;2023-04-21T01:45:31;42.97;;;31.30;;
26656;SDS011;14279;50.010;8.260;2023-04-21T01:47:56;38.40;;;29.93;;
26656;SDS011;14279;50.010;8.260;2023-04-21T01:50:22;37.50;;;30.10;;
26656;SDS011;14279;50.010;8.260;2023-04-21T01:52:47;46.33;;;31.60;;
26656;SDS011;14279;50.010;8.260;2023-04-21T01:55:12;37.40;;;29.07;;
26656;SDS011;14279;50.010;8.260;2023-04-21T01:57:38;41.30;;;30.47;;
26656;SDS011;14279;50.010;8.260;2023-04-21T02:00:04;42.00;;;32.87;;
26656;SDS011;14279;50.010;8.260;2023-04-21T02:02:30;37.70;;;29.30;;
26656;SDS011;14279;50.010;8.260;2023-04-21T02:04:55;41.17;;;31.63;;
26656;SDS011;14279;50.010;8.260;2023-04-21T02:07:20;40.87;;;30.40;;
26656;SDS011;14279;50.010;8.260;2023-04-21T02:09:45;39.30;;;30.53;;
26656;SDS011;14279;50.010;8.260;2023-04-21T02:12:11;39.43;;;29.87;;
26656;SDS011;14279;50.010;8.260;2023-04-21T02:14:36;40.70;;;29.80;;
26656;SDS011;14279;50.010;8.260;2023-04-21T02:17:02;41.20;;;32.23;;
26656;SDS011;14279;50.010;8.260;2023-04-21T02:19:28;40.90;;;30.40;;
26656;SDS011;14279;50.010;8.260;2023-04-21T02:21:53;38.77;;;30.20;;
26656;SDS011;14279;50.010;8.260;2023-04-21T02:24:19;40.43;;;30.43;;
26656;SDS011;14279;50.010;8.260;2023-04-21T02:26:45;37.10;;;29.87;;
26656;SDS011;14279;50.010;8.260;2023-04-21T02:29:10;41.23;;;31.20;;
26656;SDS011;14279;50.010;8.260;2023-04-21T02:31:35;40.57;;;31.37;;
26656;SDS011;14279;50.010;8.260;2023-04-21T02:34:00;37.10;;;28.10;;
26656;SDS011;14279;50.010;8.260;2023-04-21T02:36:26;39.57;;;29.67;;
26656;SDS011;14279;50.010;8.260;2023-04-21T02:38:51;41.33;;;30.07;;
26656;SDS011;14279;50.010;8.260;2023-04-21T02:41:16;40.00;;;29.20;;
26656;SDS011;14279;50.010;8.260;2023-04-21T02:43:41;36.17;;;28.43;;
26656;SDS011;14279;50.010;8.260;2023-04-21T02:46:07;40.60;;;29.07;;
26656;SDS011;14279;50.010;8.260;2023-04-21T02:48:33;37.37;;;27.50;;
26656;SDS011;14279;50.010;8.260;2023-04-21T02:50:59;38.10;;;27.73;;
26656;SDS011;14279;50.010;8.260;2023-04-21T02:53:24;42.70;;;30.00;;
26656;SDS011;14279;50.010;8.260;2023-04-21T02:55:50;35.63;;;29.07;;
26656;SDS011;14279;50.010;8.260;2023-04-21T02:58:15;39.80;;;30.07;;
26656;SDS011;14279;50.010;8.260;2023-04-21T03:00:40;39.10;;;29.50;;
26656;SDS011;14279;50.010;8.260;2023-04-21T03:03:06;41.20;;;30.03;;
26656;SDS011;14279;50.010;8.260;2023-04-21T03:05:31;43.03;;;28.87;;
26656;SDS011;14279;50.010;8.260;2023-04-21T03:07:56;38.53;;;29.20;;
26656;SDS011;14279;50.010;8.260;2023-04-21T03:10:22;42.27;;;31.20;;
26656;SDS011;14279;50.010;8.260;2023-04-21T03:12:47;44.10;;;32.07;;
26656;SDS011;14279;50.010;8.260;2023-04-21T03:15:12;47.60;;;30.17;;
26656;SDS011;14279;50.010;8.260;2023-04-21T03:17:38;48.23;;;30.20;;
26656;SDS011;14279;50.010;8.260;2023-04-21T03:20:04;37.53;;;28.70;;
26656;SDS011;14279;50.010;8.260;2023-04-21T03:22:32;39.97;;;30.07;;
26656;SDS011;14279;50.010;8.260;2023-04-21T03:24:57;39.20;;;28.80;;
26656;SDS011;14279;50.010;8.260;2023-04-21T03:27:22;39.83;;;28.80;;
26656;SDS011;14279;50.010;8.260;2023-04-21T03:29:48;43.83;;;30.67;;
26656;SDS011;14279;50.010;8.260;2023-04-21T03:32:13;40.63;;;30.90;;
26656;SDS011;14279;50.010;8.260;2023-04-21T03:34:38;46.00;;;29.70;;
26656;SDS011;14279;50.010;8.260;2023-04-21T03:37:03;38.47;;;27.90;;
26656;SDS011;14279;50.010;8.260;2023-04-21T03:39:28;40.77;;;29.50;;
26656;SDS011;14279;50.010;8.260;2023-04-21T03:41:54;43.10;;;31.10;;
26656;SDS011;14279;50.010;8.260;2023-04-21T03:44:19;38.63;;;29.57;;
26656;SDS011;14279;50.010;8.260;2023-04-21T03:46:45;40.07;;;30.00;;
26656;SDS011;14279;50.010;8.260;2023-04-21T03:49:10;45.33;;;28.83;;
26656;SDS011;14279;50.010;8.260;2023-04-21T03:51:35;44.90;;;31.03;;
26656;SDS011;14279;50.010;8.260;2023-04-21T03:54:00;44.97;;;32.97;;
26656;SDS011;14279;50.010;8.260;2023-04-21T03:56:25;44.13;;;30.07;;
26656;SDS011;14279;50.010;8.260;2023-04-21T03:58:51;43.37;;;30.50;;
26656;SDS011;14279;50.010;8.260;2023-04-21T04:01:17;41.33;;;30.70;;
26656;SDS011;14279;50.010;8.260;2023-04-21T04:03:42;39.70;;;29.23;;
26656;SDS011;14279;50.010;8.260;2023-04-21T04:06:07;41.50;;;30.40;;
26656;SDS011;14279;50.010;8.260;2023-04-21T04:08:32;40.10;;;29.30;;
26656;SDS011;14279;50.010;8.260;2023-04-21T04:10:58;39.73;;;28.00;;
26656;SDS011;14279;50.010;8.260;2023-04-21T04:13:23;36.97;;;27.23;;
26656;SDS011;14279;50.010;8.260;2023-04-21T04:15:50;41.73;;;28.60;;
26656;SDS011;14279;50.010;8.260;2023-04-21T04:18:15;36.03;;;27.20;;
26656;SDS011;14279;50.010;8.260;2023-04-21T04:20:41;41.00;;;28.90;;
26656;SDS011;14279;50.010;8.260;2023-04-21T04:23:06;38.80;;;26.60;;
26656;SDS011;14279;50.010;8.260;2023-04-21T04:25:32;38.40;;;28.50;;
26656;SDS011;14279;50.010;8.260;2023-04-21T04:27:57;38.90;;;28.50;;
26656;SDS011;14279;50.010;8.260;2023-04-21T04:30:23;31.63;;;24.43;;
26656;SDS011;14279;50.010;8.260;2023-04-21T04:32:51;36.67;;;28.17;;
26656;SDS011;14279;50.010;8.260;2023-04-21T04:35:17;36.87;;;27.67;;
26656;SDS011;14279;50.010;8.260;2023-04-21T04:37:43;41.00;;;26.67;;
26656;SDS011;14279;50.010;8.260;2023-04-21T04:40:09;38.90;;;28.27;;
26656;SDS011;14279;50.010;8.260;2023-04-21T04:42:38;41.03;;;28.00;;
26656;SDS011;14279;50.010;8.260;2023-04-21T04:45:04;39.77;;;27.07;;
26656;SDS011;14279;50.010;8.260;2023-04-21T04:47:32;38.33;;;27.20;;
26656;SDS011;14279;50.010;8.260;2023-04-21T04:49:57;41.53;;;28.10;;
26656;SDS011;14279;50.010;8.260;2023-04-21T04:52:22;41.37;;;28.50;;
26656;SDS011;14279;50.010;8.260;2023-04-21T04:54:47;37.57;;;28.10;;
26656;SDS011;14279;50.010;8.260;2023-04-21T04:57:13;40.53;;;29.27;;
26656;SDS011;14279;50.010;8.260;2023-04-21T04:59:38;33.90;;;26.60;;
26656;SDS011;14279;50.010;8.260;2023-04-21T05:02:03;41.67;;;28.63;;
26656;SDS011;14279;50.010;8.260;2023-04-21T05:04:28;43.37;;;28.07;;
26656;SDS011;14279;50.010;8.260;2023-04-21T05:06:54;37.67;;;28.43;;
26656;SDS011;14279;50.010;8.260;2023-04-21T05:09:19;37.77;;;28.10;;
26656;SDS011;14279;50.010;8.260;2023-04-21T05:11:44;41.50;;;27.83;;
26656;SDS011;14279;50.010;8.260;2023-04-21T05:14:10;38.90;;;27.97;;
26656;SDS011;14279;50.010;8.260;2023-04-21T05:16:35;36.40;;;27.63;;
26656;SDS011;14279;50.010;8.260;2023-04-21T05:19:00;45.50;;;28.63;;
26656;SDS011;14279;50.010;8.260;2023-04-21T05:21:26;39.83;;;29.07;;
26656;SDS011;14279;50.010;8.260;2023-04-21T05:23:55;43.43;;;30.33;;
26656;SDS011;14279;50.010;8.260;2023-04-21T05:26:22;40.17;;;29.47;;
26656;SDS011;14279;50.010;8.260;2023-04-21T05:28:48;46.73;;;30.87;;
26656;SDS011;14279;50.010;8.260;2023-04-21T05:31:14;46.07;;;31.90;;
26656;SDS011;14279;50.010;8.260;2023-04-21T05:33:39;46.70;;;32.87;;
26656;SDS011;14279;50.010;8.260;2023-04-21T05:36:07;46.10;;;31.73;;
26656;SDS011;14279;50.010;8.260;2023-04-21T05:38:34;40.00;;;27.97;;
26656;SDS011;14279;50.010;8.260;2023-04-21T05:41:00;50.30;;;29.57;;
26656;SDS011;14279;50.010;8.260;2023-04-21T05:43:26;39.93;;;28.23;;
26656;SDS011;14279;50.010;8.260;2023-04-21T05:45:51;41.97;;;28.23;;
26656;SDS011;14279;50.010;8.260;2023-04-21T05:48:16;39.77;;;28.40;;
26656;SDS011;14279;50.010;8.260;2023-04-21T05:50:41;40.40;;;29.30;;
26656;SDS011;14279;50.010;8.260;2023-04-21T05:53:07;39.93;;;27.97;;
26656;SDS011;14279;50.010;8.260;2023-04-21T05:55:35;41.80;;;29.10;;
26656;SDS011;14279;50.010;8.260;2023-04-21T05:58:01;40.90;;;28.47;;
26656;SDS011;14279;50.010;8.260;2023-04-21T06:00:26;39.10;;;28.17;;
26656;SDS011;14279;50.010;8.260;2023-04-21T06:02:52;42.73;;;28.87;;
26656;SDS011;14279;50.010;8.260;2023-04-21T06:05:17;39.03;;;28.60;;
26656;SDS011;14279;50.010;8.260;2023-04-21T06:07:42;40.03;;;29.40;;
26656;SDS011;14279;50.010;8.260;2023-04-21T06:10:08;40.30;;;29.53;;
26656;SDS011;14279;50.010;8.260;2023-04-21T06:12:35;46.57;;;29.17;;
26656;SDS011;14279;50.010;8.260;2023-04-21T06:15:00;41.67;;;26.27;;
26656;SDS011;14279;50.010;8.260;2023-04-21T06:17:25;36.70;;;26.27;;
26656;SDS011;14279;50.010;8.260;2023-04-21T06:19:51;39.73;;;28.07;;
26656;SDS011;14279;50.010;8.260;2023-04-21T06:22:20;40.70;;;26.90;;
26656;SDS011;14279;50.010;8.260;2023-04-21T06:24:48;43.60;;;26.50;;
26656;SDS011;14279;50.010;8.260;2023-04-21T06:27:13;44.70;;;27.57;;
26656;SDS011;14279;50.010;8.260;2023-04-21T06:29:39;35.17;;;25.47;;
26656;SDS011;14279;50.010;8.260;2023-04-21T06:32:04;37.10;;;27.60;;
26656;SDS011;14279;50.010;8.260;2023-04-21T06:34:38;38.40;;;28.17;;
26656;SDS011;14279;50.010;8.260;2023-04-21T06:37:18;44.20;;;27.43;;
26656;SDS011;14279;50.010;8.260;2023-04-21T06:39:43;39.37;;;27.20;;
26656;SDS011;14279;50.010;8.260;2023-04-21T06:42:08;39.30;;;27.87;;
26656;SDS011;14279;50.010;8.260;2023-04-21T06:44:34;39.40;;;28.40;;
26656;SDS011;14279;50.010;8.260;2023-04-21T06:46:59;42.30;;;28.17;;
26656;SDS011;14279;50.010;8.260;2023-04-21T06:49:24;40.17;;;29.00;;
26656;SDS011;14279;50.010;8.260;2023-04-21T06:51:50;41.33;;;29.50;;
26656;SDS011;14279;50.010;8.260;2023-04-21T06:54:15;36.20;;;27.70;;
26656;SDS011;14279;50.010;8.260;2023-04-21T06:56:40;38.33;;;28.67;;
26656;SDS011;14279;50.010;8.260;2023-04-21T06:59:07;42.13;;;28.90;;
26656;SDS011;14279;50.010;8.260;2023-04-21T07:01:32;39.80;;;28.17;;
26656;SDS011;14279;50.010;8.260;2023-04-21T07:03:58;40.53;;;28.77;;
26656;SDS011;14279;50.010;8.260;2023-04-21T07:06:23;36.33;;;25.73;;
26656;SDS011;14279;50.010;8.260;2023-04-21T07:08:48;38.00;;;27.67;;
26656;SDS011;14279;50.010;8.260;2023-04-21T07:11:14;40.37;;;27.40;;
26656;SDS011;14279;50.010;8.260;2023-04-21T07:13:39;42.60;;;27.57;;
26656;SDS011;14279;50.010;8.260;2023-04-21T07:22:57;43.47;;;29.27;;
26656;SDS011;14279;50.010;8.260;2023-04-21T07:25:27;44.77;;;29.03;;
26656;SDS011;14279;50.010;8.260;2023-04-21T07:27:53;43.37;;;29.03;;
26656;SDS011;14279;50.010;8.260;2023-04-21T07:30:18;44.87;;;30.30;;
26656;SDS011;14279;50.010;8.260;2023-04-21T07:32:43;51.50;;;32.40;;
26656;SDS011;14279;50.010;8.260;2023-04-21T07:35:10;45.13;;;30.80;;
26656;SDS011;14279;50.010;8.260;2023-04-21T07:37:35;45.00;;;29.87;;
26656;SDS011;14279;50.010;8.260;2023-04-21T07:40:06;44.53;;;30.00;;
26656;SDS011;14279;50.010;8.260;2023-04-21T07:42:51;41.97;;;30.50;;
26656;SDS011;14279;50.010;8.260;2023-04-21T07:48:22;43.77;;;31.30;;
26656;SDS011;14279;50.010;8.260;2023-04-21T07:51:16;43.50;;;30.90;;
26656;SDS011;14279;50.010;8.260;2023-04-21T07:53:48;43.00;;;30.57;;
26656;SDS011;14279;50.010;8.260;2023-04-21T07:56:21;50.83;;;30.67;;
26656;SDS011;14279;50.010;8.260;2023-04-21T07:58:49;42.70;;;28.83;;
26656;SDS011;14279;50.010;8.260;2023-04-21T08:01:15;47.13;;;30.87;;
26656;SDS011;14279;50.010;8.260;2023-04-21T08:03:40;49.47;;;31.00;;
26656;SDS011;14279;50.010;8.260;2023-04-21T08:06:05;43.60;;;32.33;;
26656;SDS011;14279;50.010;8.260;2023-04-21T08:08:31;49.07;;;34.27;;
26656;SDS011;14279;50.010;8.260;2023-04-21T08:10:56;47.93;;;32.33;;
26656;SDS011;14279;50.010;8.260;2023-04-21T08:13:21;50.53;;;34.97;;
26656;SDS011;14279;50.010;8.260;2023-04-21T08:15:49;43.50;;;32.23;;
26656;SDS011;14279;50.010;8.260;2023-04-21T08:18:15;49.27;;;33.07;;
26656;SDS011;14279;50.010;8.260;2023-04-21T08:20:42;49.03;;;31.80;;
26656;SDS011;14279;50.010;8.260;2023-04-21T08:23:08;50.40;;;33.23;;
26656;SDS011;14279;50.010;8.260;2023-04-21T08:25:33;52.40;;;33.10;;
26656;SDS011;14279;50.010;8.260;2023-04-21T08:27:58;46.97;;;32.27;;
26656;SDS011;14279;50.010;8.260;2023-04-21T08:30:24;49.27;;;31.53;;
26656;SDS011;14279;50.010;8.260;2023-04-21T08:32:51;47.87;;;32.43;;
26656;SDS011;14279;50.010;8.260;2023-04-21T08:35:16;47.73;;;33.03;;
26656;SDS011;14279;50.010;8.260;2023-04-21T08:37:41;42.50;;;31.70;;
26656;SDS011;14279;50.010;8.260;2023-04-21T08:40:07;49.10;;;30.50;;
26656;SDS011;14279;50.010;8.260;2023-04-21T08:42:33;47.07;;;32.60;;
26656;SDS011;14279;50.010;8.260;2023-04-21T08:44:59;46.37;;;31.53;;
26656;SDS011;14279;50.010;8.260;2023-04-21T08:47:24;45.37;;;31.23;;
26656;SDS011;14279;50.010;8.260;2023-04-21T08:49:51;43.00;;;32.60;;
26656;SDS011;14279;50.010;8.260;2023-04-21T08:52:18;53.93;;;31.90;;
26656;SDS011;14279;50.010;8.260;2023-04-21T08:54:43;44.13;;;31.07;;
26656;SDS011;14279;50.010;8.260;2023-04-21T08:57:08;44.07;;;31.70;;
26656;SDS011;14279;50.010;8.260;2023-04-21T08:59:33;45.20;;;31.97;;
26656;SDS011;14279;50.010;8.260;2023-04-21T09:02:09;42.43;;;31.70;;
26656;SDS011;14279;50.010;8.260;2023-04-21T09:04:40;45.27;;;32.10;;
26656;SDS011;14279;50.010;8.260;2023-04-21T09:07:07;43.83;;;31.67;;
26656;SDS011;14279;50.010;8.260;2023-04-21T09:09:33;49.03;;;31.70;;
26656;SDS011;14279;50.010;8.260;2023-04-21T09:12:15;44.73;;;31.47;;
26656;SDS011;14279;50.010;8.260;2023-04-21T09:14:50;49.90;;;32.23;;
26656;SDS011;14279;50.010;8.260;2023-04-21T09:17:29;45.83;;;31.40;;
26656;SDS011;14279;50.010;8.260;2023-04-21T09:19:56;42.97;;;31.33;;
26656;SDS011;14279;50.010;8.260;2023-04-21T09:22:25;43.53;;;30.73;;
26656;SDS011;14279;50.010;8.260;2023-04-21T09:24:56;40.17;;;29.70;;
26656;SDS011;14279;50.010;8.260;2023-04-21T09:27:23;43.03;;;29.23;;
26656;SDS011;14279;50.010;8.260;2023-04-21T09:29:49;41.73;;;29.80;;
26656;SDS011;14279;50.010;8.260;2023-04-21T09:32:18;47.70;;;31.00;;
26656;SDS011;14279;50.010;8.260;2023-04-21T09:34:44;40.13;;;28.90;;
26656;SDS011;14279;50.010;8.260;2023-04-21T09:37:11;45.67;;;28.80;;
26656;SDS011;14279;50.010;8.260;2023-04-21T09:39:37;37.57;;;27.17;;
26656;SDS011;14279;50.010;8.260;2023-04-21T09:42:03;38.00;;;27.43;;
26656;SDS011;14279;50.010;8.260;2023-04-21T09:44:28;39.10;;;27.30;;
26656;SDS011;14279;50.010;8.260;2023-04-21T09:46:59;35.63;;;27.90;;
26656;SDS011;14279;50.010;8.260;2023-04-21T09:49:29;38.83;;;27.33;;
26656;SDS011;14279;50.010;8.260;2023-04-21T09:51:56;38.27;;;27.17;;
26656;SDS011;14279;50.010;8.260;2023-04-21T09:54:27;38.57;;;27.67;;
26656;SDS011;14279;50.010;8.260;2023-04-21T09:56:54;40.73;;;28.20;;
26656;SDS011;14279;50.010;8.260;2023-04-21T09:59:24;39.50;;;27.00;;
26656;SDS011;14279;50.010;8.260;2023-04-21T10:01:52;37.47;;;27.07;;
26656;SDS011;14279;50.010;8.260;2023-04-21T10:04:19;36.97;;;26.50;;
26656;SDS011;14279;50.010;8.260;2023-04-21T10:06:46;41.90;;;27.63;;
26656;SDS011;14279;50.010;8.260;2023-04-21T10:09:12;36.30;;;25.70;;
26656;SDS011;14279;50.010;8.260;2023-04-21T10:11:40;41.70;;;27.17;;
26656;SDS011;14279;50.010;8.260;2023-04-21T10:14:05;43.43;;;25.57;;
26656;SDS011;14279;50.010;8.260;2023-04-21T10:16:34;34.80;;;25.30;;
26656;SDS011;14279;50.010;8.260;2023-04-21T10:19:00;34.90;;;25.23;;
26656;SDS011;14279;50.010;8.260;2023-04-21T10:21:26;34.30;;;23.90;;
26656;SDS011;14279;50.010;8.260;2023-04-21T10:23:52;36.63;;;23.57;;
26656;SDS011;14279;50.010;8.260;2023-04-21T10:26:22;36.13;;;24.10;;
26656;SDS011;14279;50.010;8.260;2023-04-21T10:28:56;32.80;;;23.10;;
26656;SDS011;14279;50.010;8.260;2023-04-21T10:31:36;30.70;;;21.20;;
26656;SDS011;14279;50.010;8.260;2023-04-21T10:34:13;28.63;;;21.20;;
26656;SDS011;14279;50.010;8.260;2023-04-21T10:39:30;31.53;;;22.73;;
26656;SDS011;14279;50.010;8.260;2023-04-21T10:41:57;23.43;;;17.77;;
26656;SDS011;14279;50.010;8.260;2023-04-21T10:44:50;28.00;;;18.83;;
26656;SDS011;14279;50.010;8.260;2023-04-21T10:50:21;24.83;;;17.40;;
26656;SDS011;14279;50.010;8.260;2023-04-21T10:52:53;26.77;;;18.33;;
26656;SDS011;14279;50.010;8.260;2023-04-21T10:55:22;30.30;;;21.63;;
26656;SDS011;14279;50.010;8.260;2023-04-21T10:57:50;34.40;;;24.53;;
26656;SDS011;14279;50.010;8.260;2023-04-21T11:00:17;37.90;;;24.67;;
26656;SDS011;14279;50.010;8.260;2023-04-21T11:05:31;33.60;;;23.50;;
26656;SDS011;14279;50.010;8.260;2023-04-21T11:08:07;33.23;;;23.00;;
26656;SDS011;14279;50.010;8.260;2023-04-21T11:10:56;32.20;;;22.00;;
26656;SDS011;14279;50.010;8.260;2023-04-21T11:13:22;37.83;;;23.23;;
26656;SDS011;14279;50.010;8.260;2023-04-21T11:16:01;30.80;;;22.73;;
26656;SDS011;14279;50.010;8.260;2023-04-21T11:18:31;38.57;;;23.47;;
26656;SDS011;14279;50.010;8.260;2023-04-21T11:21:07;44.00;;;22.47;;
26656;SDS011;14279;50.010;8.260;2023-04-21T11:23:34;30.33;;;21.97;;
26656;SDS011;14279;50.010;8.260;2023-04-21T11:26:00;33.80;;;22.60;;
26656;SDS011;14279;50.010;8.260;2023-04-21T11:28:25;28.30;;;21.13;;
26656;SDS011;14279;50.010;8.260;2023-04-21T11:30:50;28.70;;;22.00;;
26656;SDS011;14279;50.010;8.260;2023-04-21T11:33:16;33.67;;;24.10;;
26656;SDS011;14279;50.010;8.260;2023-04-21T11:35:41;34.60;;;23.37;;
26656;SDS011;14279;50.010;8.260;2023-04-21T11:38:07;29.97;;;21.13;;
26656;SDS011;14279;50.010;8.260;2023-04-21T11:40:48;33.37;;;22.70;;
26656;SDS011;14279;50.010;8.260;2023-04-21T11:43:13;28.77;;;18.80;;
26656;SDS011;14279;50.010;8.260;2023-04-21T11:45:39;33.83;;;17.77;;
26656;SDS011;14279;50.010;8.260;2023-04-21T11:48:15;24.10;;;17.67;;
26656;SDS011;14279;50.010;8.260;2023-04-21T11:50:45;24.80;;;17.83;;
26656;SDS011;14279;50.010;8.260;2023-04-21T11:53:15;28.50;;;18.10;;
26656;SDS011;14279;50.010;8.260;2023-04-21T11:55:41;29.00;;;18.03;;
26656;SDS011;14279;50.010;8.260;2023-04-21T11:58:07;24.27;;;17.70;;
26656;SDS011;14279;50.010;8.260;2023-04-21T12:00:32;27.77;;;19.50;;
26656;SDS011;14279;50.010;8.260;2023-04-21T12:02:58;28.93;;;18.10;;
26656;SDS011;14279;50.010;8.260;2023-04-21T12:05:23;25.93;;;18.70;;
26656;SDS011;14279;50.010;8.260;2023-04-21T12:07:48;27.50;;;18.07;;
26656;SDS011;14279;50.010;8.260;2023-04-21T12:10:16;21.30;;;15.50;;
26656;SDS011;14279;50.010;8.260;2023-04-21T12:12:43;18.10;;;14.53;;
26656;SDS011;14279;50.010;8.260;2023-04-21T12:15:09;19.30;;;14.60;;
26656;SDS011;14279;50.010;8.260;2023-04-21T12:17:43;19.23;;;14.00;;
26656;SDS011;14279;50.010;8.260;2023-04-21T12:20:10;19.07;;;14.37;;
26656;SDS011;14279;50.010;8.260;2023-04-21T12:22:36;18.50;;;13.20;;
26656;SDS011;14279;50.010;8.260;2023-04-21T12:25:01;18.40;;;13.13;;
26656;SDS011;14279;50.010;8.260;2023-04-21T12:27:27;18.87;;;13.90;;
26656;SDS011;14279;50.010;8.260;2023-04-21T12:29:52;14.43;;;12.10;;
26656;SDS011;14279;50.010;8.260;2023-04-21T12:32:18;22.40;;;15.60;;
26656;SDS011;14279;50.010;8.260;2023-04-21T12:34:43;23.33;;;16.77;;
26656;SDS011;14279;50.010;8.260;2023-04-21T12:37:08;22.70;;;15.37;;
26656;SDS011;14279;50.010;8.260;2023-04-21T12:39:33;18.37;;;14.10;;
26656;SDS011;14279;50.010;8.260;2023-04-21T12:41:59;14.43;;;12.10;;
26656;SDS011;14279;50.010;8.260;2023-04-21T12:44:25;18.10;;;12.87;;
26656;SDS011;14279;50.010;8.260;2023-04-21T12:46:51;16.63;;;12.33;;
26656;SDS011;14279;50.010;8.260;2023-04-21T12:49:16;15.30;;;11.77;;
26656;SDS011;14279;50.010;8.260;2023-04-21T12:51:42;16.47;;;11.93;;
26656;SDS011;14279;50.010;8.260;2023-04-21T12:54:08;16.03;;;12.57;;
26656;SDS011;14279;50.010;8.260;2023-04-21T12:56:34;13.43;;;12.03;;
26656;SDS011;14279;50.010;8.260;2023-04-21T12:59:00;17.83;;;11.70;;
26656;SDS011;14279;50.010;8.260;2023-04-21T13:01:25;18.10;;;13.57;;
26656;SDS011;14279;50.010;8.260;2023-04-21T13:03:51;20.10;;;14.80;;
26656;SDS011;14279;50.010;8.260;2023-04-21T13:06:16;22.40;;;15.53;;
26656;SDS011;14279;50.010;8.260;2023-04-21T13:08:41;18.90;;;13.83;;
26656;SDS011;14279;50.010;8.260;2023-04-21T13:11:07;18.00;;;13.93;;
26656;SDS011;14279;50.010;8.260;2023-04-21T13:13:32;18.10;;;11.97;;
26656;SDS011;14279;50.010;8.260;2023-04-21T13:15:57;16.57;;;11.90;;
26656;SDS011;14279;50.010;8.260;2023-04-21T13:18:23;18.20;;;13.50;;
26656;SDS011;14279;50.010;8.260;2023-04-21T13:20:48;16.17;;;12.53;;
26656;SDS011;14279;50.010;8.260;2023-04-21T13:23:13;15.40;;;11.63;;
26656;SDS011;14279;50.010;8.260;2023-04-21T13:25:39;13.30;;;10.20;;
26656;SDS011;14279;50.010;8.260;2023-04-21T13:28:05;12.60;;;10.83;;
26656;SDS011;14279;50.010;8.260;2023-04-21T13:30:31;18.40;;;10.80;;
26656;SDS011;14279;50.010;8.260;2023-04-21T13:32:57;13.70;;;11.07;;
26656;SDS011;14279;50.010;8.260;2023-04-21T13:35:22;12.93;;;11.00;;
26656;SDS011;14279;50.010;8.260;2023-04-21T13:37:47;17.90;;;12.03;;
26656;SDS011;14279;50.010;8.260;2023-04-21T13:40:13;12.87;;;10.37;;
26656;SDS011;14279;50.010;8.260;2023-04-21T13:42:39;13.73;;;11.20;;
26656;SDS011;14279;50.010;8.260;2023-04-21T13:45:04;12.50;;;9.50;;
26656;SDS011;14279;50.010;8.260;2023-04-21T13:47:31;12.33;;;9.53;;
26656;SDS011;14279;50.010;8.260;2023-04-21T13:49:57;15.83;;;11.70;;
26656;SDS011;14279;50.010;8.260;2023-04-21T13:52:23;14.63;;;11.33;;
26656;SDS011;14279;50.010;8.260;2023-04-21T13:54:49;16.97;;;11.47;;
26656;SDS011;14279;50.010;8.260;2023-04-21T13:57:16;13.77;;;9.53;;
26656;SDS011;14279;50.010;8.260;2023-04-21T13:59:41;13.17;;;10.47;;
26656;SDS011;14279;50.010;8.260;2023-04-21T14:02:06;12.07;;;10.73;;
26656;SDS011;14279;50.010;8.260;2023-04-21T14:04:32;14.80;;;11.63;;
26656;SDS011;14279;50.010;8.260;2023-04-21T14:06:57;17.80;;;11.00;;
26656;SDS011;14279;50.010;8.260;2023-04-21T14:09:22;14.13;;;10.27;;
26656;SDS011;14279;50.010;8.260;2023-04-21T14:11:47;13.40;;;11.27;;
26656;SDS011;14279;50.010;8.260;2023-04-21T14:14:13;18.80;;;9.90;;
26656;SDS011;14279;50.010;8.260;2023-04-21T14:16:38;13.10;;;9.80;;
26656;SDS011;14279;50.010;8.260;2023-04-21T14:19:03;13.33;;;10.93;;
26656;SDS011;14279;50.010;8.260;2023-04-21T14:21:28;12.90;;;10.30;;
26656;SDS011;14279;50.010;8.260;2023-04-21T14:23:54;13.23;;;9.50;;
26656;SDS011;14279;50.010;8.260;2023-04-21T14:26:20;10.93;;;8.90;;
26656;SDS011;14279;50.010;8.260;2023-04-21T14:28:45;11.20;;;9.03;;
26656;SDS011;14279;50.010;8.260;2023-04-21T14:31:10;9.50;;;8.47;;
26656;SDS011;14279;50.010;8.260;2023-04-21T14:33:35;15.87;;;9.17;;
26656;SDS011;14279;50.010;8.260;2023-04-21T14:36:01;10.33;;;9.23;;